< < Back
Terminal Aerodrome Forecast


Current Version              Previous Versions:   1  2  3  4  5  6  7  8  9  

Terminal Aerodrome Forecast

796
FTUS44 KHUN 042137 AAB
TAFHSV
TAF AMD
KHSV 042137Z 0422/0518 26015G40KT 5SM TSRA BKN050CB
     FM042300 32014G21KT P6SM SCT060
     FM050700 33004KT P6SM SKC WS020/35035KT
     FM051400 32015G25KT P6SM SCT050=

Latest METAR

548
SAUS80 KWBC 050100 RRB
MTRHSV
METAR KHSV 050053Z 00000KT 10SM FEW025 SCT110 15/13 A2976 RMK AO2 SLP074
CB DSNT N AND NE T01500128


USA.gov is the U.S. government's official web portal to all federal, state and local government web resources and services.